This is the latest recevied weather packets stored in our database for station/object N1SU-13. If no packets are shown the sender has not sent any weather packets the latest 10 day(s).
| Time | Temp. | Humidity | Pressure | Rain* | Wind** | Luminosity | Snow |
|---|---|---|---|---|---|---|---|
| 1777527175 | 12.78° C | 75% | 1021.4 hPa | - | - | - | - |
| 1777526505 | 12.78° C | 74% | 1021.4 hPa | - | - | - | - |
| 1777525892 | 13.33° C | 74% | 1021.3 hPa | - | - | - | - |
| 1777525197 | 13.33° C | 72% | 1021.3 hPa | - | - | - | - |
| 1777524555 | 13.89° C | 71% | 1021.3 hPa | - | - | - | - |
| 1777523920 | 13.89° C | 70% | 1021.2 hPa | - | - | - | - |
| 1777523312 | 14.44° C | 68% | 1021.2 hPa | - | - | - | - |
| 1777522701 | 14.44° C | 67% | 1021.1 hPa | - | - | - | - |
| 1777522125 | 15° C | 66% | 1021.1 hPa | - | - | - | - |
| 1777521467 | 15.56° C | 65% | 1020.9 hPa | - | - | - | - |
| 1777520771 | 15.56° C | 63% | 1020.7 hPa | - | - | - | - |
| 1777520182 | 16.11° C | 62% | 1020.4 hPa | - | - | - | - |
| 1777519563 | 16.67° C | 60% | 1020.3 hPa | - | - | - | - |
| 1777518986 | 16.67° C | 59% | 1020.2 hPa | - | - | - | - |
| 1777518363 | 17.22° C | 56% | 1020.2 hPa | - | - | - | - |
| 1777517672 | 18.89° C | 54% | 1020 hPa | - | - | - | - |
| 1777517077 | 20.56° C | 49% | 1019.8 hPa | - | - | - | - |
| 1777516484 | 21.11° C | 46% | 1019.7 hPa | - | - | - | - |
| 1777515824 | 21.11° C | 45% | 1019.7 hPa | - | - | - | - |
| 1777515147 | 21.11° C | 47% | 1019.9 hPa | - | - | - | - |
| 1777514478 | 21.11° C | 46% | 1019.7 hPa | - | - | - | - |
| 1777513825 | 21.67° C | 46% | 1019.7 hPa | - | - | - | - |
| 1777513211 | 21.11° C | 47% | 1019.7 hPa | - | - | - | - |
| 1777512545 | 21.11° C | 48% | 1019.9 hPa | - | - | - | - |
| 1777511981 | 20.56° C | 51% | 1020 hPa | - | - | - | - |
* Rain since midnight (hover to see other rain measurements)
** Current wind speed in m/s (hover to see current wind gust speed)